Time;durP1;ratioP1;P1;durP2;ratioP2;P2;SDS_P1;SDS_P2;PMS_P1;PMS_P2;Temp;Humidity;BMP_temperature;BMP_pressure;BME280_temperature;BME280_humidity;BME280_pressure;Samples;Min_cycle;Max_cycle;Signal;HPM_P1;HPM_P2
2024/01/31 00:01:19;;;;;;;;;;;;;;;;;;;;;
2024/01/31 00:03:45;;;;;;;23.48;10.80;;;;;;;1.94;100.00;96027.06;6187234;23;20084;-88
2024/01/31 00:06:14;;;;;;;25.42;10.27;;;;;;;2.08;100.00;96032.47;6161090;23;20037;-88
2024/01/31 00:08:42;;;;;;;21.50;9.65;;;;;;;2.04;100.00;96028.63;6186199;23;20008;-87
2024/01/31 00:11:18;;;;;;;;;;;;;;;;;;;;;
2024/01/31 00:13:48;;;;;;;19.67;8.98;;;;;;;2.04;100.00;96026.84;6187315;23;20092;-88
2024/01/31 00:16:16;;;;;;;21.10;8.57;;;;;;;1.85;100.00;96020.34;6186302;23;20024;-88
2024/01/31 00:19:13;;;;;;;14.85;6.03;;;;;;;2.04;100.00;96028.63;6186236;23;20080;-88
2024/01/31 00:21:41;;;;;;;16.25;4.75;;;;;;;2.47;100.00;96031.53;6163717;23;20315;-88
2024/01/31 00:24:06;;;;;;;17.17;7.97;;;;;;;2.32;100.00;96021.16;6161467;23;19993;-88
2024/01/31 00:26:32;;;;;;;23.35;9.18;;;;;;;2.31;100.00;96016.97;6186052;23;20079;-89
2024/01/31 00:29:00;;;;;;;17.63;8.07;;;;;;;2.26;100.00;96027.00;6161327;23;20001;-88
2024/01/31 00:31:32;;;;;;;26.80;9.48;;;;;;;1.90;100.00;96030.97;6185685;23;20001;-88
2024/01/31 00:34:11;;;;;;;;;;;;;;;;;;;;;
2024/01/31 00:36:37;;;;;;;20.23;8.07;;;;;;;1.93;100.00;96020.28;6185798;23;20073;-89
2024/01/31 00:39:15;;;;;;;20.30;8.82;;;;;;;1.66;100.00;96019.00;6161623;23;20339;-88
2024/01/31 00:41:40;;;;;;;19.45;8.45;;;;;;;1.63;100.00;96021.91;6185394;23;20001;-88
2024/01/31 00:44:13;;;;;;;18.30;7.88;;;;;;;1.71;100.00;96019.28;6185815;23;19993;-88
2024/01/31 00:46:44;;;;;;;16.45;6.80;;;;;;;1.91;100.00;96019.66;6162743;23;20005;-88
2024/01/31 00:49:10;;;;;;;22.08;7.60;;;;;;;1.96;100.00;96022.53;6161714;23;20008;-88
2024/01/31 00:51:37;;;;;;;16.42;7.45;;;;;;;1.92;100.00;96020.47;6185572;23;20404;-88
2024/01/31 00:54:06;;;;;;;22.23;8.13;;;;;;;2.03;100.00;96020.06;6185753;23;20403;-88
2024/01/31 00:56:31;;;;;;;13.10;6.28;;;;;;;1.79;100.00;96032.16;6161541;23;20008;-88
2024/01/31 00:59:07;;;;;;;;;;;;;;;;;;;;;
2024/01/31 01:01:34;;;;;;;13.40;5.60;;;;;;;1.81;100.00;96029.41;6185378;23;20036;-88
2024/01/31 01:04:02;;;;;;;12.90;5.40;;;;;;;1.98;100.00;96024.94;6162357;23;19997;-87
2024/01/31 01:06:28;;;;;;;14.98;5.80;;;;;;;1.79;100.00;96027.00;6187745;23;20079;-87
2024/01/31 01:08:53;;;;;;;16.05;6.07;;;;;;;1.71;100.00;96031.41;6187288;23;20029;-88
2024/01/31 01:11:19;;;;;;;16.05;5.97;;;;;;;1.73;100.00;96013.94;6162568;23;20001;-88
2024/01/31 01:13:47;;;;;;;15.00;6.53;;;;;;;1.94;100.00;96021.09;6187605;23;20001;-88
2024/01/31 01:16:15;;;;;;;25.65;6.57;;;;;;;1.78;100.00;96021.97;6163579;23;20087;-88
2024/01/31 01:18:40;;;;;;;20.27;7.60;;;;;;;1.76;100.00;96017.00;6163568;23;20403;-88
2024/01/31 01:21:13;;;;;;;17.88;7.18;;;;;;;1.84;100.00;96013.56;6162844;23;20004;-88
2024/01/31 01:23:39;;;;;;;18.25;6.68;;;;;;;1.75;100.00;96005.06;6187886;23;20084;-88
2024/01/31 01:26:07;;;;;;;15.63;7.15;;;;;;;1.87;100.00;96009.84;6187427;23;20004;-88
2024/01/31 01:28:34;;;;;;;16.75;6.95;;;;;;;1.76;100.00;96000.69;6163727;23;20302;-88
2024/01/31 01:31:00;;;;;;;14.55;6.20;;;;;;;1.75;100.00;95999.06;6163139;23;20001;-88
2024/01/31 01:33:26;;;;;;;16.40;7.20;;;;;;;1.88;100.00;95996.72;6187324;23;20123;-88
2024/01/31 01:35:58;;;;;;;22.42;7.88;;;;;;;1.88;100.00;95998.53;6163110;23;20502;-88
2024/01/31 01:38:24;;;;;;;16.20;6.75;;;;;;;1.90;100.00;95999.16;6164297;23;20008;-88
2024/01/31 01:40:52;;;;;;;15.95;6.95;;;;;;;1.95;100.00;96000.25;6187314;23;20068;-88
2024/01/31 01:43:20;;;;;;;22.15;7.40;;;;;;;2.11;100.00;95995.94;6163106;23;20306;-87
2024/01/31 01:45:51;;;;;;;18.35;7.53;;;;;;;1.99;100.00;95995.50;6163519;23;19997;-88
2024/01/31 01:48:16;;;;;;;18.08;7.90;;;;;;;2.02;100.00;95990.03;6187297;23;19997;-88
2024/01/31 01:50:42;;;;;;;20.38;7.80;;;;;;;1.95;100.00;95987.31;6162576;23;20007;-87
2024/01/31 01:53:11;;;;;;;26.90;7.95;;;;;;;1.99;100.00;95998.09;6162646;23;20009;-87
2024/01/31 01:55:38;;;;;;;15.10;7.00;;;;;;;1.97;100.00;95990.53;6187046;23;20001;-87
2024/01/31 01:58:04;;;;;;;13.77;5.85;;;;;;;1.97;100.00;95990.53;6162932;23;20025;-87
2024/01/31 02:00:37;;;;;;;21.88;7.60;;;;;;;2.00;100.00;95994.53;6162421;23;20004;-88
2024/01/31 02:03:04;;;;;;;18.67;7.15;;;;;;;1.87;100.00;95991.75;6187879;23;20004;-87
2024/01/31 02:05:39;;;;;;;17.70;7.07;;;;;;;1.96;100.00;95985.53;6187032;23;20363;-87
2024/01/31 02:08:13;;;;;;;16.33;6.78;;;;;;;1.93;100.00;95991.84;6164938;23;20008;-88
2024/01/31 02:10:40;;;;;;;13.32;5.93;;;;;;;2.02;100.00;96000.38;6187136;23;19999;-87
2024/01/31 02:13:08;;;;;;;17.65;6.28;;;;;;;2.14;100.00;95994.75;6162945;23;20015;-88
2024/01/31 02:15:36;;;;;;;16.83;6.25;;;;;;;2.16;100.00;95995.41;6162650;23;19997;-87
2024/01/31 02:18:04;;;;;;;16.27;6.05;;;;;;;2.16;100.00;95990.25;6162768;23;20005;-87
2024/01/31 02:20:32;;;;;;;15.13;6.13;;;;;;;2.35;100.00;95994.13;6162123;23;20001;-87
2024/01/31 02:22:57;;;;;;;16.52;6.78;;;;;;;2.37;100.00;95987.78;6161015;23;20080;-87
2024/01/31 02:25:23;;;;;;;15.85;6.25;;;;;;;2.27;100.00;95987.22;6186357;23;20009;-87
2024/01/31 02:27:48;;;;;;;11.70;5.60;;;;;;;2.28;100.00;95986.25;6161718;23;20071;-87
2024/01/31 02:30:15;;;;;;;18.65;6.03;;;;;;;2.39;100.00;95985.84;6188312;23;20071;-87
2024/01/31 02:32:41;;;;;;;18.80;5.88;;;;;;;2.38;100.00;95983.44;6186982;23;20005;-87
2024/01/31 02:35:07;;;;;;;15.18;6.05;;;;;;;2.37;100.00;95987.00;6186612;23;20036;-87
2024/01/31 02:37:32;;;;;;;18.05;6.70;;;;;;;2.17;100.00;95982.31;6187208;23;19997;-87
2024/01/31 02:39:59;;;;;;;15.60;6.80;;;;;;;2.20;100.00;95981.94;6187017;23;19997;-87
2024/01/31 02:42:24;;;;;;;14.80;6.68;;;;;;;2.15;100.00;95979.09;6186741;23;19996;-87
2024/01/31 02:44:50;;;;;;;16.58;6.63;;;;;;;2.33;100.00;95977.97;6186770;23;19993;-87
2024/01/31 02:47:15;;;;;;;19.02;5.85;;;;;;;2.36;100.00;95986.19;6187830;23;19996;-86
2024/01/31 02:49:41;;;;;;;13.27;5.93;;;;;;;2.46;100.00;95979.97;6186391;23;20452;-87
2024/01/31 02:52:06;;;;;;;15.38;6.30;;;;;;;2.30;100.00;95980.91;6161809;23;19997;-87
2024/01/31 02:54:32;;;;;;;14.55;5.38;;;;;;;2.31;100.00;95987.69;6186172;23;20008;-86
2024/01/31 02:56:57;;;;;;;16.30;6.18;;;;;;;2.26;100.00;95972.69;6161584;23;20012;-87
2024/01/31 02:59:23;;;;;;;13.15;5.55;;;;;;;2.32;100.00;95974.59;6186575;23;20001;-87
2024/01/31 03:01:49;;;;;;;14.13;5.90;;;;;;;2.20;100.00;95974.19;6161452;23;20008;-87
2024/01/31 03:04:15;;;;;;;13.55;5.28;;;;;;;2.29;100.00;95969.75;6162276;23;20060;-87
2024/01/31 03:06:40;;;;;;;12.40;5.53;;;;;;;2.26;100.00;95970.09;6186489;23;19993;-87
2024/01/31 03:09:06;;;;;;;19.08;5.55;;;;;;;2.21;100.00;95965.44;6186280;23;20001;-87
2024/01/31 03:11:31;;;;;;;14.35;5.70;;;;;;;2.24;100.00;95969.47;6186779;23;20004;-87
2024/01/31 03:13:57;;;;;;;14.45;5.55;;;;;;;2.20;100.00;95968.22;6186464;23;20005;-87
2024/01/31 03:16:22;;;;;;;15.07;5.50;;;;;;;2.20;100.00;95970.81;6185637;23;19997;-87
2024/01/31 03:18:48;;;;;;;14.70;5.55;;;;;;;2.18;100.00;95975.34;6186372;23;20004;-86
2024/01/31 03:21:13;;;;;;;16.58;6.57;;;;;;;2.23;100.00;95970.47;6185785;23;20446;-87
2024/01/31 03:23:39;;;;;;;12.07;5.63;;;;;;;2.19;100.00;95971.78;6161381;23;19997;-87
2024/01/31 03:26:04;;;;;;;12.27;5.50;;;;;;;2.16;100.00;95969.56;6161103;23;20071;-87
2024/01/31 03:28:30;;;;;;;13.32;5.43;;;;;;;2.23;100.00;95965.28;6161345;23;20087;-86
2024/01/31 03:30:55;;;;;;;17.95;5.88;;;;;;;2.19;100.00;95970.00;6185357;23;19997;-87
2024/01/31 03:33:21;;;;;;;13.52;5.60;;;;;;;2.14;100.00;95964.56;6161636;23;20032;-87
2024/01/31 03:35:46;;;;;;;16.20;5.65;;;;;;;2.02;100.00;95963.34;6161503;23;20080;-87
2024/01/31 03:38:12;;;;;;;16.77;6.35;;;;;;;1.90;100.00;95952.63;6185885;23;20007;-87
2024/01/31 03:40:38;;;;;;;16.92;5.57;;;;;;;2.10;100.00;95956.34;6161192;23;20004;-87
2024/01/31 03:43:04;;;;;;;22.70;6.90;;;;;;;2.11;100.00;95959.75;6161528;23;20075;-86
2024/01/31 03:45:29;;;;;;;12.25;5.90;;;;;;;1.95;100.00;95958.88;6161324;23;20346;-87
2024/01/31 03:47:55;;;;;;;14.75;6.05;;;;;;;1.90;100.00;95955.22;6185281;23;20440;-87
2024/01/31 03:50:20;;;;;;;11.60;5.57;;;;;;;1.70;100.00;95955.66;6185986;23;19997;-87
2024/01/31 03:52:46;;;;;;;19.38;6.15;;;;;;;1.69;100.00;95957.44;6186014;23;20410;-87
2024/01/31 03:55:12;;;;;;;15.10;5.70;;;;;;;1.63;100.00;95950.38;6160404;23;20070;-87
2024/01/31 03:57:37;;;;;;;15.70;5.93;;;;;;;1.73;100.00;95951.94;6161210;23;20350;-87
2024/01/31 04:00:08;;;;;;;16.27;6.15;;;;;;;1.78;100.00;95952.22;6185581;23;20391;-87
2024/01/31 04:02:35;;;;;;;15.80;6.00;;;;;;;1.78;100.00;95957.38;6185483;23;20001;-87
2024/01/31 04:05:01;;;;;;;14.23;6.20;;;;;;;1.49;100.00;95948.50;6184966;23;20016;-87
2024/01/31 04:07:29;;;;;;;12.77;5.75;;;;;;;1.48;100.00;95947.72;6160317;23;20027;-87
2024/01/31 04:09:55;;;;;;;15.48;6.18;;;;;;;1.50;100.00;95950.94;6160139;23;20476;-87
2024/01/31 04:12:20;;;;;;;18.75;6.32;;;;;;;1.54;100.00;95952.19;6160796;23;20005;-86
2024/01/31 04:14:49;;;;;;;14.48;6.30;;;;;;;1.49;100.00;95944.16;6184833;23;20008;-87
2024/01/31 04:17:15;;;;;;;17.55;6.85;;;;;;;1.45;100.00;95942.91;6161849;23;20379;-87
2024/01/31 04:19:56;;;;;;;18.30;6.25;;;;;;;1.57;100.00;95942.50;6185470;23;20071;-87
2024/01/31 04:22:22;;;;;;;17.77;6.18;;;;;;;1.63;100.00;95947.00;6161049;23;20012;-87
2024/01/31 04:24:48;;;;;;;17.55;7.03;;;;;;;1.68;100.00;95931.75;6160638;23;20000;-87
2024/01/31 04:27:16;;;;;;;17.27;7.30;;;;;;;1.72;100.00;95937.41;6185695;23;20001;-87
2024/01/31 04:29:42;;;;;;;17.42;6.97;;;;;;;1.54;100.00;95935.91;6187198;23;20009;-87
2024/01/31 04:32:08;;;;;;;14.75;6.25;;;;;;;1.40;100.00;95929.69;6161204;23;20084;-87
2024/01/31 04:34:35;;;;;;;18.10;6.97;;;;;;;1.46;100.00;95933.38;6185253;23;20072;-87
2024/01/31 04:37:01;;;;;;;18.80;6.95;;;;;;;1.49;100.00;95936.41;6185676;23;20340;-87
2024/01/31 04:39:27;;;;;;;15.18;6.30;;;;;;;1.41;100.00;95934.69;6163107;23;20026;-87
2024/01/31 04:41:59;;;;;;;17.73;6.80;;;;;;;1.47;100.00;95933.19;6189432;23;20021;-87
2024/01/31 04:44:27;;;;;;;20.48;7.47;;;;;;;1.59;100.00;95930.22;6188821;23;20001;-86
2024/01/31 04:46:53;;;;;;;14.82;6.70;;;;;;;1.33;100.00;95932.13;6188335;23;20399;-87
2024/01/31 04:49:25;;;;;;;20.30;6.75;;;;;;;1.57;100.00;95940.72;6164124;23;20001;-87
2024/01/31 04:51:54;;;;;;;13.30;6.30;;;;;;;1.49;100.00;95938.19;6165731;23;20005;-87
2024/01/31 04:54:19;;;;;;;25.13;7.30;;;;;;;1.69;100.00;95941.94;6188473;23;20001;-87
2024/01/31 04:56:47;;;;;;;18.65;7.75;;;;;;;1.70;100.00;95945.31;6163728;23;20020;-86
2024/01/31 04:59:13;;;;;;;12.85;5.50;;;;;;;1.71;100.00;95931.41;6188748;23;20292;-87
2024/01/31 05:01:48;;;;;;;10.85;4.85;;;;;;;1.89;100.00;95944.06;6188194;23;20012;-87
2024/01/31 05:04:16;;;;;;;11.82;5.13;;;;;;;1.91;100.00;95951.66;6189577;23;19993;-87
2024/01/31 05:06:42;;;;;;;9.73;4.20;;;;;;;1.97;100.00;95950.94;6188924;23;20055;-87
2024/01/31 05:09:11;;;;;;;11.63;4.93;;;;;;;1.75;100.00;95942.22;6163355;23;20319;-88
2024/01/31 05:11:38;;;;;;;19.75;5.45;;;;;;;1.68;100.00;95948.09;6164941;23;20037;-89
2024/01/31 05:14:11;;;;;;;12.55;5.15;;;;;;;1.76;100.00;95956.75;6165086;23;20010;-90
2024/01/31 05:16:39;;;;;;;11.95;5.10;;;;;;;1.71;100.00;95951.31;6189246;23;19997;-89
2024/01/31 05:19:11;;;;;;;14.38;5.47;;;;;;;1.14;100.00;95951.44;6165293;23;19993;-90
2024/01/31 05:21:59;;;;;;;13.35;5.97;;;;;;;1.21;100.00;95949.81;6165853;23;20004;-88
2024/01/31 05:24:27;;;;;;;10.43;4.75;;;;;;;1.07;100.00;95947.94;6164907;23;20311;-89
2024/01/31 05:27:03;;;;;;;;;;;;;;;;;;;;;
2024/01/31 05:29:32;;;;;;;19.17;6.68;;;;;;;1.38;100.00;95949.72;6188872;23;20076;-88
2024/01/31 05:31:57;;;;;;;18.77;6.32;;;;;;;1.34;100.00;95961.38;6190170;23;20008;-87
2024/01/31 05:34:22;;;;;;;14.55;5.93;;;;;;;1.30;100.00;95945.41;6164439;23;20395;-86
2024/01/31 05:36:49;;;;;;;15.68;5.88;;;;;;;1.32;100.00;95952.97;6163641;23;20327;-86
2024/01/31 05:39:14;;;;;;;18.08;5.82;;;;;;;1.35;100.00;95962.97;6163890;23;20001;-87
2024/01/31 05:41:43;;;;;;;12.38;4.97;;;;;;;1.22;100.00;95958.34;6164121;23;20001;-87
2024/01/31 05:44:09;;;;;;;11.95;4.28;;;;;;;1.22;100.00;95956.56;6163825;23;19993;-87
2024/01/31 05:46:35;;;;;;;12.10;5.00;;;;;;;1.41;100.00;95949.38;6164237;23;20082;-87
2024/01/31 05:49:02;;;;;;;10.27;4.72;;;;;;;1.34;100.00;95961.38;6188793;23;20474;-87
2024/01/31 05:51:28;;;;;;;12.70;5.22;;;;;;;1.25;100.00;95963.97;6162536;23;20009;-86
2024/01/31 05:53:54;;;;;;;10.88;4.70;;;;;;;1.35;100.00;95962.97;6186694;23;20083;-86
2024/01/31 05:56:19;;;;;;;10.57;4.80;;;;;;;1.27;100.00;95959.44;6187424;23;20011;-86
2024/01/31 05:58:44;;;;;;;10.98;4.30;;;;;;;1.21;100.00;95972.22;6186988;23;20423;-86
2024/01/31 06:01:10;;;;;;;10.82;4.90;;;;;;;1.06;100.00;95964.38;6187128;23;20008;-87
2024/01/31 06:03:35;;;;;;;9.27;4.28;;;;;;;1.02;100.00;95968.28;6186845;23;19993;-86
2024/01/31 06:06:01;;;;;;;10.85;4.50;;;;;;;0.81;100.00;95965.28;6186835;23;20051;-86
2024/01/31 06:08:26;;;;;;;9.25;3.75;;;;;;;0.83;100.00;95965.91;6186697;23;20289;-86
2024/01/31 06:11:02;;;;;;;24.35;4.40;;;;;;;0.95;100.00;95968.16;6188009;23;19997;-87
2024/01/31 06:13:31;;;;;;;8.50;3.65;;;;;;;0.87;100.00;95968.97;6187147;23;20005;-86
2024/01/31 06:15:57;;;;;;;7.97;3.38;;;;;;;0.83;100.00;95965.09;6187082;23;20004;-86
2024/01/31 06:18:23;;;;;;;8.13;2.95;;;;;;;0.88;100.00;95975.75;6186566;23;20434;-86
2024/01/31 06:20:49;;;;;;;8.30;3.63;;;;;;;0.96;100.00;95975.69;6187991;23;20430;-86
2024/01/31 06:23:14;;;;;;;8.00;3.58;;;;;;;1.08;100.00;95971.00;6162497;23;19997;-86
2024/01/31 06:25:40;;;;;;;9.15;4.03;;;;;;;1.20;100.00;95965.44;6186547;23;20051;-86
2024/01/31 06:28:06;;;;;;;10.90;3.50;;;;;;;1.21;100.00;95973.03;6162328;23;20021;-86
2024/01/31 06:30:34;;;;;;;10.75;3.50;;;;;;;0.88;100.00;95967.19;6186379;23;20052;-86
2024/01/31 06:33:08;;;;;;;8.10;3.50;;;;;;;0.81;100.00;95972.22;6162612;23;20024;-86
2024/01/31 06:35:34;;;;;;;9.43;3.50;;;;;;;1.04;100.00;95987.00;6186523;23;20051;-86
2024/01/31 06:38:00;;;;;;;8.32;3.22;;;;;;;0.91;100.00;95977.16;6186424;23;20008;-86
2024/01/31 06:40:26;;;;;;;8.40;3.10;;;;;;;0.88;100.00;95980.91;6162078;23;20009;-86
2024/01/31 06:42:52;;;;;;;11.07;3.30;;;;;;;0.88;100.00;95980.09;6162139;23;20296;-86
2024/01/31 06:45:17;;;;;;;7.13;3.20;;;;;;;0.97;100.00;95971.38;6161977;23;20032;-86
2024/01/31 06:47:43;;;;;;;5.05;2.42;;;;;;;1.16;100.00;95964.19;6186932;23;20005;-86
2024/01/31 06:50:09;;;;;;;9.57;2.63;;;;;;;1.06;100.00;95972.13;6161974;23;20411;-86
2024/01/31 06:52:34;;;;;;;7.70;2.83;;;;;;;1.12;98.14;95974.84;6161687;23;20048;-86
2024/01/31 06:55:01;;;;;;;7.55;3.13;;;;;;;1.04;99.25;95971.50;6161490;23;20012;-85
2024/01/31 06:57:27;;;;;;;7.43;3.17;;;;;;;1.31;97.64;95977.19;6162452;23;19996;-86
2024/01/31 06:59:52;;;;;;;5.88;3.00;;;;;;;1.39;96.49;95977.16;6161495;23;20004;-86
2024/01/31 07:02:18;;;;;;;5.88;2.33;;;;;;;1.43;94.80;95970.66;6161702;23;19997;-86
2024/01/31 07:04:44;;;;;;;7.53;2.70;;;;;;;1.52;93.67;95979.97;6161637;23;20020;-86
2024/01/31 07:07:09;;;;;;;7.75;2.53;;;;;;;1.65;92.91;95978.63;6187463;23;20311;-86
2024/01/31 07:09:34;;;;;;;6.75;2.72;;;;;;;1.66;93.38;95981.06;6187519;23;20008;-86
2024/01/31 07:12:00;;;;;;;5.97;2.50;;;;;;;1.81;91.04;95985.47;6161469;23;19997;-86
2024/01/31 07:14:25;;;;;;;5.35;2.30;;;;;;;1.90;90.54;95991.41;6185981;23;20411;-86
2024/01/31 07:16:51;;;;;;;6.13;2.85;;;;;;;1.98;89.74;95988.75;6186071;23;20063;-86
2024/01/31 07:19:17;;;;;;;4.53;2.33;;;;;;;2.09;86.58;95990.13;6161768;23;20367;-86
2024/01/31 07:21:42;;;;;;;5.07;2.20;;;;;;;2.28;86.09;95990.63;6161281;23;19993;-86
2024/01/31 07:24:08;;;;;;;4.97;1.92;;;;;;;2.40;86.19;95989.25;6161732;23;19993;-86
2024/01/31 07:26:35;;;;;;;4.68;2.05;;;;;;;2.54;89.43;95992.81;6161393;23;20020;-86
2024/01/31 07:29:01;;;;;;;5.28;2.30;;;;;;;2.62;90.24;96000.53;6162108;23;20300;-86
2024/01/31 07:31:26;;;;;;;5.80;2.38;;;;;;;2.59;93.98;95994.88;6161217;23;20004;-86
2024/01/31 07:33:52;;;;;;;5.93;2.33;;;;;;;2.62;90.85;95997.13;6161515;23;20429;-87
2024/01/31 07:36:19;;;;;;;5.55;2.30;;;;;;;2.77;95.36;95997.94;6162046;23;20087;-87
2024/01/31 07:38:46;;;;;;;9.45;2.60;;;;;;;2.82;95.77;95998.22;6162141;23;20012;-86
2024/01/31 07:41:12;;;;;;;7.72;2.58;;;;;;;2.86;90.77;95995.28;6161202;23;20468;-86
2024/01/31 07:43:38;;;;;;;6.68;1.83;;;;;;;2.92;90.39;95997.94;6161082;23;20033;-86
2024/01/31 07:46:04;;;;;;;5.45;2.38;;;;;;;2.99;92.61;95998.03;6161545;23;20350;-86
2024/01/31 07:48:30;;;;;;;10.38;3.30;;;;;;;2.97;94.89;96003.38;6161579;23;20009;-86
2024/01/31 07:50:56;;;;;;;5.38;2.53;;;;;;;3.23;95.97;96001.34;6185686;23;20004;-86
2024/01/31 07:53:21;;;;;;;5.50;2.50;;;;;;;3.38;95.56;96009.09;6161021;23;20021;-86
2024/01/31 07:55:47;;;;;;;6.93;2.80;;;;;;;3.40;92.38;95999.34;6185507;23;20001;-86
2024/01/31 07:58:12;;;;;;;5.07;2.53;;;;;;;3.49;97.77;96006.03;6161404;23;19997;-86
2024/01/31 08:00:38;;;;;;;5.05;2.40;;;;;;;3.58;97.01;95998.16;6160955;23;20029;-86
2024/01/31 08:03:03;;;;;;;8.50;3.45;;;;;;;3.65;92.21;96015.38;6161473;23;20004;-87
2024/01/31 08:05:29;;;;;;;6.07;2.97;;;;;;;3.78;91.27;96006.97;6161419;23;20076;-87
2024/01/31 08:07:54;;;;;;;11.07;3.45;;;;;;;3.87;90.10;96002.47;6161756;23;20071;-87
2024/01/31 08:10:20;;;;;;;8.90;3.00;;;;;;;4.01;90.01;96003.38;6161602;23;20339;-86
2024/01/31 08:12:46;;;;;;;9.93;3.25;;;;;;;4.09;90.54;96000.66;6185403;23;19997;-87
2024/01/31 08:15:12;;;;;;;7.45;3.15;;;;;;;4.06;94.86;96016.63;6186004;23;20008;-87
2024/01/31 08:17:38;;;;;;;8.48;3.13;;;;;;;4.21;93.17;96016.53;6186207;23;20001;-86
2024/01/31 08:20:04;;;;;;;7.05;3.13;;;;;;;4.30;93.97;96011.22;6185489;23;19997;-87
2024/01/31 08:22:32;;;;;;;13.10;3.38;;;;;;;4.36;93.78;96013.06;6185724;23;20008;-87
2024/01/31 08:24:57;;;;;;;9.23;3.95;;;;;;;4.48;95.02;96013.38;6185840;23;20414;-86
2024/01/31 08:27:23;;;;;;;12.20;4.07;;;;;;;4.52;96.20;96015.41;6185333;23;19997;-86
2024/01/31 08:29:53;;;;;;;9.98;4.50;;;;;;;4.56;94.29;96018.41;6160860;23;20027;-87
2024/01/31 08:32:18;;;;;;;13.85;4.80;;;;;;;4.58;92.83;96013.06;6161336;23;20000;-87
2024/01/31 08:34:44;;;;;;;10.65;4.68;;;;;;;4.59;91.58;96010.28;6161128;23;20012;-87
2024/01/31 08:37:09;;;;;;;13.55;4.53;;;;;;;4.65;90.42;96009.50;6160864;23;20059;-86
2024/01/31 08:39:34;;;;;;;10.10;3.85;;;;;;;4.80;91.00;96011.22;6160848;23;19993;-87
2024/01/31 08:42:00;;;;;;;11.18;3.95;;;;;;;4.88;85.54;96010.25;6160611;23;20005;-86
2024/01/31 08:44:28;;;;;;;8.70;4.07;;;;;;;4.99;92.26;96006.31;6185354;23;19993;-86
2024/01/31 08:46:53;;;;;;;9.50;3.90;;;;;;;5.08;95.47;96008.56;6161634;23;20288;-86
2024/01/31 08:49:21;;;;;;;9.15;4.10;;;;;;;5.18;93.80;96007.44;6185316;23;20032;-86
2024/01/31 08:51:47;;;;;;;10.57;4.03;;;;;;;5.15;91.41;96003.41;6185136;23;20001;-87
2024/01/31 08:54:12;;;;;;;9.55;3.90;;;;;;;5.10;91.80;96005.78;6185617;23;20415;-87
2024/01/31 08:56:40;;;;;;;9.43;3.50;;;;;;;5.16;88.50;96004.22;6161422;23;20029;-87
2024/01/31 08:59:06;;;;;;;8.50;3.63;;;;;;;5.23;87.12;96011.06;6187313;23;20040;-87
2024/01/31 09:01:31;;;;;;;9.25;3.70;;;;;;;5.24;89.87;96012.66;6161012;23;20036;-87
2024/01/31 09:03:57;;;;;;;8.77;3.80;;;;;;;5.30;88.93;96007.69;6161446;23;20075;-87
2024/01/31 09:06:22;;;;;;;8.60;3.83;;;;;;;5.34;86.89;95995.94;6161039;23;19997;-87
2024/01/31 09:08:48;;;;;;;8.35;3.75;;;;;;;5.36;83.30;95999.13;6185416;23;20008;-87
2024/01/31 09:11:14;;;;;;;11.70;4.30;;;;;;;5.41;84.94;96012.34;6160616;23;20407;-87
2024/01/31 09:13:41;;;;;;;9.90;3.90;;;;;;;5.39;87.90;96011.72;6160592;23;20060;-87
2024/01/31 09:16:06;;;;;;;8.80;4.22;;;;;;;5.56;83.57;96008.78;6185635;23;20004;-86
2024/01/31 09:18:32;;;;;;;8.60;3.60;;;;;;;5.45;84.91;96005.78;6185485;23;20299;-86
2024/01/31 09:20:57;;;;;;;9.13;4.28;;;;;;;5.59;84.11;96003.19;6160475;23;20526;-86
2024/01/31 09:23:23;;;;;;;14.20;4.18;;;;;;;5.65;83.62;96007.63;6160994;23;20005;-86
2024/01/31 09:25:49;;;;;;;11.57;4.50;;;;;;;5.73;83.26;96012.66;6161190;23;19993;-86
2024/01/31 09:28:15;;;;;;;10.68;4.65;;;;;;;5.72;84.64;96010.25;6162499;23;20001;-87
2024/01/31 09:30:43;;;;;;;9.93;4.45;;;;;;;5.78;83.07;96012.88;6162712;23;20015;-87
2024/01/31 09:33:09;;;;;;;10.27;4.38;;;;;;;5.89;82.18;96019.31;6163276;23;20008;-86
2024/01/31 09:35:34;;;;;;;9.73;4.43;;;;;;;6.03;86.24;96019.38;6187052;23;19996;-87
2024/01/31 09:38:00;;;;;;;10.65;4.85;;;;;;;6.09;85.12;96013.38;6162928;23;20001;-86
2024/01/31 09:40:25;;;;;;;9.15;4.38;;;;;;;6.15;84.14;96014.38;6162218;23;20008;-86
2024/01/31 09:42:51;;;;;;;10.40;4.63;;;;;;;6.16;82.64;96014.19;6186991;23;20054;-87
2024/01/31 09:45:17;;;;;;;7.57;4.25;;;;;;;6.28;78.89;96011.00;6187248;23;19993;-87
2024/01/31 09:47:43;;;;;;;14.23;4.65;;;;;;;6.28;78.73;96014.41;6187284;23;20024;-86
2024/01/31 09:50:09;;;;;;;14.95;5.10;;;;;;;6.31;76.59;96016.63;6162120;23;20547;-87
2024/01/31 09:52:35;;;;;;;15.00;4.90;;;;;;;6.36;78.84;96013.41;6187263;23;20001;-87
2024/01/31 09:55:04;;;;;;;10.98;4.40;;;;;;;6.39;81.49;96007.00;6162373;23;20403;-87
2024/01/31 09:57:30;;;;;;;9.80;3.88;;;;;;;6.38;82.27;96006.19;6187143;23;19997;-87
2024/01/31 09:59:56;;;;;;;10.25;4.40;;;;;;;6.54;82.75;96009.41;6162510;23;20315;-86
2024/01/31 10:02:22;;;;;;;15.88;4.55;;;;;;;6.64;80.70;96001.97;6186645;23;20011;-86
2024/01/31 10:04:51;;;;;;;13.02;5.03;;;;;;;6.81;81.52;96012.81;6162089;23;20008;-87
2024/01/31 10:07:30;;;;;;;13.57;4.97;;;;;;;6.83;82.06;96004.78;6186737;23;20020;-87
2024/01/31 10:09:56;;;;;;;11.55;4.40;;;;;;;6.87;80.17;95998.94;6186733;23;19997;-87
2024/01/31 10:12:22;;;;;;;10.20;4.60;;;;;;;7.02;83.07;96005.72;6186916;23;20008;-87
2024/01/31 10:14:48;;;;;;;9.20;4.50;;;;;;;7.10;82.37;96018.56;6162652;23;20005;-87
2024/01/31 10:17:16;;;;;;;16.75;5.18;;;;;;;7.19;77.02;96009.53;6162727;23;20080;-87
2024/01/31 10:19:42;;;;;;;10.48;4.50;;;;;;;7.22;75.84;96003.91;6162332;23;20410;-87
2024/01/31 10:22:07;;;;;;;14.70;4.50;;;;;;;7.36;78.34;96006.47;6186848;23;20050;-87
2024/01/31 10:24:32;;;;;;;15.05;5.32;;;;;;;7.27;76.52;96002.47;6162700;23;20075;-87
2024/01/31 10:26:58;;;;;;;14.27;5.97;;;;;;;7.34;77.92;96000.66;6161892;23;20001;-87
2024/01/31 10:29:24;;;;;;;11.32;4.85;;;;;;;7.39;78.82;95990.41;6186573;23;20000;-87
2024/01/31 10:31:52;;;;;;;14.10;5.00;;;;;;;7.45;78.46;95996.59;6186674;23;20001;-87
2024/01/31 10:34:18;;;;;;;10.88;4.80;;;;;;;7.56;77.50;95995.16;6162708;23;20404;-87
2024/01/31 10:36:44;;;;;;;12.15;5.32;;;;;;;7.58;78.01;95988.72;6161921;23;20080;-86
2024/01/31 10:39:10;;;;;;;11.98;4.75;;;;;;;7.69;75.31;95989.09;6186465;23;20004;-87
2024/01/31 10:41:36;;;;;;;14.63;5.68;;;;;;;7.83;76.18;95982.78;6162522;23;20001;-86
2024/01/31 10:44:03;;;;;;;12.15;5.45;;;;;;;7.88;74.00;95969.91;6161754;23;19997;-86
2024/01/31 10:46:29;;;;;;;12.13;4.90;;;;;;;7.89;73.31;95978.50;6161914;23;20016;-87
2024/01/31 10:48:54;;;;;;;11.40;5.30;;;;;;;7.93;73.06;95966.66;6162350;23;20007;-86
2024/01/31 10:51:21;;;;;;;13.05;5.25;;;;;;;7.98;74.52;95969.44;6162031;23;20001;-87
2024/01/31 10:53:46;;;;;;;13.65;5.57;;;;;;;8.05;71.59;95969.38;6162238;23;20004;-86
2024/01/31 10:56:12;;;;;;;16.10;5.47;;;;;;;8.23;74.21;95963.44;6161792;23;20009;-87
2024/01/31 10:58:39;;;;;;;12.88;4.90;;;;;;;8.22;73.82;95961.84;6162070;23;19998;-86
2024/01/31 11:01:04;;;;;;;12.52;5.55;;;;;;;8.30;74.43;95951.13;6161790;23;20024;-87
2024/01/31 11:03:30;;;;;;;16.70;5.53;;;;;;;8.39;73.11;95959.50;6162003;23;20000;-87
2024/01/31 11:05:56;;;;;;;11.80;5.10;;;;;;;8.45;72.62;95957.84;6161497;23;20009;-86
2024/01/31 11:08:24;;;;;;;14.00;5.15;;;;;;;8.49;72.33;95957.19;6161912;23;20009;-86
2024/01/31 11:10:49;;;;;;;12.50;5.60;;;;;;;8.53;69.63;95948.97;6161743;23;20001;-87
2024/01/31 11:13:15;;;;;;;15.40;5.57;;;;;;;8.58;73.47;95946.53;6162096;23;20009;-87
2024/01/31 11:15:41;;;;;;;12.40;5.50;;;;;;;8.66;71.77;95948.06;6186428;23;19993;-87
2024/01/31 11:18:09;;;;;;;14.25;5.65;;;;;;;8.77;71.10;95947.34;6161745;23;20011;-87
2024/01/31 11:20:49;;;;;;;13.50;5.72;;;;;;;8.81;71.16;95937.25;6186194;23;19997;-87
2024/01/31 11:23:23;;;;;;;17.20;6.40;;;;;;;8.83;68.74;95938.63;6162887;23;20009;-86
2024/01/31 11:25:52;;;;;;;14.10;5.68;;;;;;;8.85;71.89;95928.75;6161734;23;19997;-87
2024/01/31 11:28:18;;;;;;;11.77;5.40;;;;;;;8.99;70.58;95931.22;6161416;23;20005;-87
2024/01/31 11:30:52;;;;;;;11.80;5.88;;;;;;;9.11;70.00;95921.66;6186165;23;19997;-87
2024/01/31 11:33:18;;;;;;;15.93;5.80;;;;;;;9.16;68.37;95924.38;6163147;23;20011;-87
2024/01/31 11:35:44;;;;;;;13.93;6.03;;;;;;;9.29;68.67;95922.63;6161672;23;20390;-87